createdAt,value
2023-05-07T00:00:32.831Z,1012.24
2023-05-07T00:01:32.827Z,1012.25
2023-05-07T00:03:33.027Z,1012.20
2023-05-07T00:04:32.933Z,1012.26
2023-05-07T00:05:33.233Z,1012.24
2023-05-07T00:07:32.991Z,1012.23
2023-05-07T00:09:33.047Z,1012.22
2023-05-07T00:10:33.171Z,1012.21
2023-05-07T00:11:34.150Z,1012.20
2023-05-07T00:12:33.438Z,1012.19
2023-05-07T00:13:33.167Z,1012.17
2023-05-07T00:14:33.216Z,1012.12
2023-05-07T00:15:33.222Z,1012.12
2023-05-07T00:16:33.285Z,1012.08
2023-05-07T00:17:33.333Z,1012.10
2023-05-07T00:18:33.311Z,1012.10
2023-05-07T00:19:33.651Z,1012.08
2023-05-07T00:21:33.400Z,1012.08
2023-05-07T00:22:33.430Z,1012.08
2023-05-07T00:23:33.456Z,1012.10
2023-05-07T00:24:33.484Z,1012.11
2023-05-07T00:25:33.514Z,1012.14
2023-05-07T00:26:33.863Z,1012.15
2023-05-07T00:28:33.602Z,1012.12
2023-05-07T00:29:33.630Z,1012.08
2023-05-07T00:30:33.666Z,1012.11
2023-05-07T00:33:33.755Z,1012.08
2023-05-07T00:34:34.074Z,1012.12
2023-05-07T00:35:33.805Z,1012.08
2023-05-07T00:36:33.836Z,1012.08
2023-05-07T00:37:33.867Z,1012.10
2023-05-07T00:38:33.886Z,1012.10
2023-05-07T00:39:33.919Z,1012.10
2023-05-07T00:41:33.975Z,1012.04
2023-05-07T00:43:34.430Z,1012.07
2023-05-07T00:44:34.079Z,1012.05
2023-05-07T00:45:34.102Z,1012.05
2023-05-07T00:46:34.252Z,1012.05
2023-05-07T00:48:34.191Z,1012.02
2023-05-07T00:49:34.215Z,1012.02
2023-05-07T00:51:34.541Z,1011.99
2023-05-07T00:52:34.297Z,1012.00
2023-05-07T00:53:34.341Z,1011.98
2023-05-07T00:54:34.356Z,1011.98
2023-05-07T00:55:34.385Z,1011.97
2023-05-07T00:56:34.413Z,1011.98
2023-05-07T00:57:34.744Z,1012.02
2023-05-07T00:58:34.475Z,1012.04
2023-05-07T00:59:34.598Z,1012.04
2023-05-07T01:00:34.528Z,1012.03
2023-05-07T01:01:34.622Z,1012.05
2023-05-07T01:02:34.597Z,1012.06
2023-05-07T01:04:34.876Z,1012.03
2023-05-07T01:05:34.983Z,1012.03
2023-05-07T01:06:34.716Z,1012.03
2023-05-07T01:09:34.796Z,1012.04
2023-05-07T01:10:34.850Z,1012.05
2023-05-07T01:11:34.857Z,1012.01
2023-05-07T01:13:35.209Z,1011.98
2023-05-07T01:14:34.937Z,1011.98
2023-05-07T01:15:35.071Z,1011.95
2023-05-07T01:16:35.066Z,1011.98
2023-05-07T01:17:35.091Z,1011.97
2023-05-07T01:19:35.408Z,1011.93
2023-05-07T01:21:35.156Z,1011.93
2023-05-07T01:23:35.202Z,1011.89
2023-05-07T01:24:35.269Z,1011.94
2023-05-07T01:25:35.264Z,1011.97
2023-05-07T01:26:35.595Z,1011.94
2023-05-07T01:27:35.318Z,1011.95
2023-05-07T01:28:35.454Z,1011.95
2023-05-07T01:29:35.399Z,1011.95
2023-05-07T01:30:35.406Z,1011.94
2023-05-07T01:31:35.561Z,1011.92
2023-05-07T01:32:35.490Z,1011.92
2023-05-07T01:34:35.842Z,1011.91
2023-05-07T01:36:35.589Z,1011.93
2023-05-07T01:38:35.638Z,1011.92
2023-05-07T01:39:35.729Z,1011.90
2023-05-07T01:40:35.706Z,1011.91
2023-05-07T01:42:36.155Z,1011.91
2023-05-07T01:43:35.800Z,1011.84
2023-05-07T01:44:35.821Z,1011.85
2023-05-07T01:45:35.838Z,1011.87
2023-05-07T01:47:36.022Z,1011.79
2023-05-07T01:49:36.258Z,1011.81
2023-05-07T01:51:36.011Z,1011.79
2023-05-07T01:53:36.179Z,1011.80
2023-05-07T01:56:36.165Z,1011.75
2023-05-07T01:58:36.510Z,1011.73
2023-05-07T01:59:36.242Z,1011.77
2023-05-07T02:00:36.336Z,1011.75
2023-05-07T02:01:36.367Z,1011.75
2023-05-07T02:04:36.406Z,1011.77
2023-05-07T02:05:36.713Z,1011.78
2023-05-07T02:06:36.448Z,1011.78
2023-05-07T02:07:36.477Z,1011.81
2023-05-07T02:08:36.500Z,1011.76
2023-05-07T02:09:36.533Z,1011.79
2023-05-07T02:10:36.561Z,1011.77
2023-05-07T02:11:36.890Z,1011.74
2023-05-07T02:12:36.664Z,1011.76
2023-05-07T02:13:36.651Z,1011.75
2023-05-07T02:14:36.690Z,1011.76
2023-05-07T02:15:36.705Z,1011.75
2023-05-07T02:16:36.796Z,1011.74
2023-05-07T02:18:37.090Z,1011.77
2023-05-07T02:19:36.828Z,1011.79
2023-05-07T02:20:36.945Z,1011.79
2023-05-07T02:24:36.974Z,1011.85
2023-05-07T02:26:37.329Z,1011.86
2023-05-07T02:27:37.061Z,1011.87
2023-05-07T02:28:37.090Z,1011.84
2023-05-07T02:29:37.128Z,1011.83
2023-05-07T02:30:37.149Z,1011.84
2023-05-07T02:31:37.204Z,1011.85
2023-05-07T02:32:37.519Z,1011.80
2023-05-07T02:33:37.232Z,1011.82
2023-05-07T02:35:37.291Z,1011.83
2023-05-07T02:36:37.525Z,1011.81
2023-05-07T02:37:37.402Z,1011.89
2023-05-07T02:38:37.395Z,1011.86
2023-05-07T02:42:37.805Z,1011.89
2023-05-07T02:43:37.521Z,1011.90
2023-05-07T02:44:37.550Z,1011.91
2023-05-07T02:45:37.649Z,1011.93
2023-05-07T02:46:37.601Z,1011.91
2023-05-07T02:47:37.667Z,1011.91
2023-05-07T02:48:37.914Z,1011.89
2023-05-07T02:49:37.694Z,1011.90
2023-05-07T02:50:37.829Z,1011.88
2023-05-07T02:51:37.751Z,1011.86
2023-05-07T02:52:37.871Z,1011.88
2023-05-07T02:53:37.917Z,1011.94
2023-05-07T02:54:38.233Z,1011.89
2023-05-07T02:55:37.864Z,1011.90
2023-05-07T02:56:37.890Z,1011.89
2023-05-07T02:57:37.934Z,1011.94
2023-05-07T02:58:37.950Z,1011.94
2023-05-07T02:59:37.994Z,1011.92
2023-05-07T03:00:38.307Z,1011.88
2023-05-07T03:03:38.154Z,1011.89
2023-05-07T03:04:38.193Z,1011.93
2023-05-07T03:06:38.191Z,1011.94
2023-05-07T03:07:38.217Z,1011.91
2023-05-07T03:08:38.315Z,1011.90
2023-05-07T03:09:38.269Z,1011.87
2023-05-07T03:10:38.300Z,1011.90
2023-05-07T03:12:38.426Z,1011.83
2023-05-07T03:13:38.679Z,1011.87
2023-05-07T03:14:38.444Z,1011.80
2023-05-07T03:16:38.474Z,1011.81
2023-05-07T03:17:38.526Z,1011.78
2023-05-07T03:18:38.547Z,1011.80
2023-05-07T03:19:38.595Z,1011.77
2023-05-07T03:20:38.959Z,1011.77
2023-05-07T03:21:38.609Z,1011.75
2023-05-07T03:22:38.641Z,1011.76
2023-05-07T03:23:38.664Z,1011.75
2023-05-07T03:24:38.712Z,1011.73
2023-05-07T03:25:38.726Z,1011.77
2023-05-07T03:26:38.760Z,1011.72
2023-05-07T03:27:39.100Z,1011.69
2023-05-07T03:28:38.811Z,1011.69
2023-05-07T03:29:38.848Z,1011.71
2023-05-07T03:30:38.871Z,1011.68
2023-05-07T03:31:38.935Z,1011.74
2023-05-07T03:32:38.959Z,1011.71
2023-05-07T03:33:39.003Z,1011.77
2023-05-07T03:34:39.328Z,1011.70
2023-05-07T03:35:39.008Z,1011.75
2023-05-07T03:36:39.044Z,1011.73
2023-05-07T03:37:39.078Z,1011.71
2023-05-07T03:38:39.094Z,1011.70
2023-05-07T03:39:39.132Z,1011.67
2023-05-07T03:40:39.325Z,1011.73
2023-05-07T03:41:39.484Z,1011.68
2023-05-07T03:43:39.241Z,1011.77
2023-05-07T03:44:39.261Z,1011.78
2023-05-07T03:45:39.320Z,1011.78
2023-05-07T03:46:39.379Z,1011.79
2023-05-07T03:47:39.370Z,1011.79
2023-05-07T03:48:39.627Z,1011.76
2023-05-07T03:49:39.464Z,1011.76
2023-05-07T03:51:39.467Z,1011.72
2023-05-07T03:52:39.523Z,1011.73
2023-05-07T03:53:39.528Z,1011.76
2023-05-07T03:54:39.853Z,1011.76
2023-05-07T03:55:39.702Z,1011.79
2023-05-07T03:56:39.708Z,1011.76
2023-05-07T03:57:39.641Z,1011.74
2023-05-07T03:58:39.670Z,1011.75
2023-05-07T03:59:39.711Z,1011.77
2023-05-07T04:00:40.039Z,1011.79
2023-05-07T04:01:39.763Z,1011.82
2023-05-07T04:02:40.012Z,1011.77
2023-05-07T04:03:39.856Z,1011.81
2023-05-07T04:04:39.849Z,1011.82
2023-05-07T04:05:39.872Z,1011.83
2023-05-07T04:06:40.149Z,1011.82
2023-05-07T04:07:39.928Z,1011.85
2023-05-07T04:08:39.967Z,1011.84
2023-05-07T04:09:39.993Z,1011.89
2023-05-07T04:10:40.017Z,1011.89
2023-05-07T04:12:40.209Z,1011.95
2023-05-07T04:13:40.402Z,1011.93
2023-05-07T04:14:40.127Z,1012.00
2023-05-07T04:15:40.159Z,1011.97
2023-05-07T04:16:40.205Z,1012.00
2023-05-07T04:17:40.249Z,1011.98
2023-05-07T04:18:40.241Z,1011.97
2023-05-07T04:19:40.272Z,1011.99
2023-05-07T04:20:40.604Z,1011.93
2023-05-07T04:21:40.332Z,1011.91
2023-05-07T04:22:40.355Z,1011.96
2023-05-07T04:23:40.389Z,1011.91
2023-05-07T04:24:40.413Z,1011.91
2023-05-07T04:25:40.443Z,1011.91
2023-05-07T04:26:40.469Z,1011.92
2023-05-07T04:27:40.798Z,1011.87
2023-05-07T04:28:40.622Z,1011.88
2023-05-07T04:29:40.557Z,1011.85
2023-05-07T04:30:40.597Z,1011.83
2023-05-07T04:31:40.650Z,1011.82
2023-05-07T04:32:40.653Z,1011.86
2023-05-07T04:33:40.691Z,1011.85
2023-05-07T04:34:41.008Z,1011.86
2023-05-07T04:35:40.725Z,1011.87
2023-05-07T04:36:40.753Z,1011.86
2023-05-07T04:37:40.781Z,1011.87
2023-05-07T04:39:40.846Z,1011.87
2023-05-07T04:40:40.866Z,1011.88
2023-05-07T04:41:41.205Z,1011.90
2023-05-07T04:42:40.950Z,1011.91
2023-05-07T04:43:40.954Z,1011.90
2023-05-07T04:44:41.079Z,1011.89
2023-05-07T04:45:41.041Z,1011.91
2023-05-07T04:46:41.070Z,1011.91
2023-05-07T04:47:41.113Z,1011.90
2023-05-07T04:48:41.404Z,1011.93
2023-05-07T04:49:41.223Z,1011.91
2023-05-07T04:50:41.254Z,1011.97
2023-05-07T04:51:41.182Z,1011.96
2023-05-07T04:52:41.215Z,1011.95
2023-05-07T04:53:41.242Z,1011.96
2023-05-07T04:55:41.307Z,1011.90
2023-05-07T04:56:41.623Z,1011.91
2023-05-07T04:57:41.352Z,1011.95
2023-05-07T04:58:41.380Z,1011.95
2023-05-07T04:59:41.421Z,1011.90
2023-05-07T05:00:41.464Z,1011.96
2023-05-07T05:01:41.579Z,1011.93
2023-05-07T05:02:41.573Z,1011.95
2023-05-07T05:03:41.867Z,1011.94
2023-05-07T05:04:41.569Z,1011.92
2023-05-07T05:05:41.597Z,1011.93
2023-05-07T05:06:41.613Z,1011.96
2023-05-07T05:08:41.671Z,1011.92
2023-05-07T05:09:41.799Z,1011.91
2023-05-07T05:10:41.983Z,1011.92
2023-05-07T05:11:41.758Z,1011.93
2023-05-07T05:12:41.804Z,1011.92
2023-05-07T05:13:41.813Z,1011.91
2023-05-07T05:14:41.842Z,1011.93
2023-05-07T05:15:41.878Z,1011.94
2023-05-07T05:16:42.100Z,1011.97
2023-05-07T05:18:42.210Z,1011.97
2023-05-07T05:19:41.992Z,1012.00
2023-05-07T05:20:42.032Z,1012.00
2023-05-07T05:21:42.041Z,1011.98
2023-05-07T05:22:42.095Z,1012.01
2023-05-07T05:23:42.099Z,1012.01
2023-05-07T05:24:42.134Z,1012.03
2023-05-07T05:25:42.462Z,1012.02
2023-05-07T05:26:42.184Z,1012.00
2023-05-07T05:27:42.218Z,1012.04
2023-05-07T05:28:42.244Z,1012.04
2023-05-07T05:29:42.275Z,1012.06
2023-05-07T05:30:42.299Z,1012.04
2023-05-07T05:31:42.343Z,1012.03
2023-05-07T05:32:42.506Z,1012.09
2023-05-07T05:33:42.386Z,1012.09
2023-05-07T05:36:42.482Z,1012.09
2023-05-07T05:37:42.506Z,1012.14
2023-05-07T05:38:42.936Z,1012.16
2023-05-07T05:39:42.558Z,1012.17
2023-05-07T05:40:42.588Z,1012.18
2023-05-07T05:41:42.619Z,1012.18
2023-05-07T05:42:42.651Z,1012.23
2023-05-07T05:43:42.678Z,1012.20
2023-05-07T05:44:42.709Z,1012.21
2023-05-07T05:45:43.033Z,1012.20
2023-05-07T05:46:42.820Z,1012.22
2023-05-07T05:47:42.858Z,1012.25
2023-05-07T05:48:42.975Z,1012.27
2023-05-07T05:49:42.854Z,1012.24
2023-05-07T05:50:42.872Z,1012.27
2023-05-07T05:51:42.922Z,1012.24
2023-05-07T05:52:43.230Z,1012.28
2023-05-07T05:54:43.093Z,1012.22
2023-05-07T05:55:43.019Z,1012.26
2023-05-07T05:56:43.049Z,1012.26
2023-05-07T05:57:43.073Z,1012.25
2023-05-07T05:58:43.148Z,1012.23
2023-05-07T05:59:43.389Z,1012.25
2023-05-07T06:00:43.164Z,1012.25
2023-05-07T06:01:43.224Z,1012.24
2023-05-07T06:02:43.331Z,1012.25
2023-05-07T06:03:43.249Z,1012.29
2023-05-07T06:04:43.518Z,1012.29
2023-05-07T06:05:43.304Z,1012.26
2023-05-07T06:06:43.643Z,1012.32
2023-05-07T06:07:43.363Z,1012.32
2023-05-07T06:08:43.388Z,1012.31
2023-05-07T06:09:43.418Z,1012.31
2023-05-07T06:10:43.452Z,1012.35
2023-05-07T06:11:43.492Z,1012.37
2023-05-07T06:12:43.546Z,1012.39
2023-05-07T06:13:43.837Z,1012.40
2023-05-07T06:14:43.560Z,1012.36
2023-05-07T06:15:43.607Z,1012.40
2023-05-07T06:16:43.711Z,1012.37
2023-05-07T06:17:43.705Z,1012.37
2023-05-07T06:18:43.677Z,1012.37
2023-05-07T06:19:43.962Z,1012.35
2023-05-07T06:20:43.832Z,1012.35
2023-05-07T06:21:43.763Z,1012.35
2023-05-07T06:22:43.794Z,1012.35
2023-05-07T06:23:43.841Z,1012.33
2023-05-07T06:24:43.856Z,1012.34
2023-05-07T06:25:44.183Z,1012.33
2023-05-07T06:26:43.952Z,1012.36
2023-05-07T06:27:43.941Z,1012.38
2023-05-07T06:28:43.966Z,1012.38
2023-05-07T06:29:44.005Z,1012.38
2023-05-07T06:30:44.027Z,1012.41
2023-05-07T06:31:44.391Z,1012.38
2023-05-07T06:33:44.122Z,1012.44
2023-05-07T06:34:44.397Z,1012.40
2023-05-07T06:35:44.185Z,1012.43
2023-05-07T06:36:44.295Z,1012.41
2023-05-07T06:37:44.229Z,1012.42
2023-05-07T06:38:44.524Z,1012.41
2023-05-07T06:39:44.335Z,1012.43
2023-05-07T06:40:44.324Z,1012.38
2023-05-07T06:41:44.347Z,1012.45
2023-05-07T06:42:44.380Z,1012.47
2023-05-07T06:43:44.419Z,1012.43
2023-05-07T06:44:44.431Z,1012.45
2023-05-07T06:45:44.718Z,1012.46
2023-05-07T06:46:44.571Z,1012.47
2023-05-07T06:47:44.574Z,1012.51
2023-05-07T06:48:44.552Z,1012.45
2023-05-07T06:49:44.583Z,1012.48
2023-05-07T06:50:44.610Z,1012.46
2023-05-07T06:51:44.639Z,1012.45
2023-05-07T06:52:45.057Z,1012.47
2023-05-07T06:53:44.696Z,1012.44
2023-05-07T06:55:44.757Z,1012.43
2023-05-07T06:56:44.782Z,1012.45
2023-05-07T06:57:44.816Z,1012.44
2023-05-07T06:58:44.854Z,1012.42
2023-05-07T06:59:45.170Z,1012.45
2023-05-07T07:01:44.986Z,1012.44
2023-05-07T07:02:45.000Z,1012.44
2023-05-07T07:03:44.986Z,1012.46
2023-05-07T07:04:45.044Z,1012.48
2023-05-07T07:05:45.063Z,1012.51
2023-05-07T07:06:45.372Z,1012.51
2023-05-07T07:07:45.138Z,1012.48
2023-05-07T07:08:45.238Z,1012.51
2023-05-07T07:09:45.170Z,1012.50
2023-05-07T07:10:45.184Z,1012.52
2023-05-07T07:11:45.240Z,1012.55
2023-05-07T07:12:45.273Z,1012.52
2023-05-07T07:13:45.570Z,1012.52
2023-05-07T07:14:45.302Z,1012.53
2023-05-07T07:15:45.356Z,1012.57
2023-05-07T07:16:45.360Z,1012.55
2023-05-07T07:17:45.442Z,1012.55
2023-05-07T07:18:45.534Z,1012.56
2023-05-07T07:19:45.449Z,1012.57
2023-05-07T07:20:45.784Z,1012.58
2023-05-07T07:21:45.504Z,1012.58
2023-05-07T07:22:45.542Z,1012.60
2023-05-07T07:23:45.561Z,1012.59
2023-05-07T07:24:45.617Z,1012.61
2023-05-07T07:25:45.626Z,1012.61
2023-05-07T07:26:45.647Z,1012.57
2023-05-07T07:27:45.986Z,1012.64
2023-05-07T07:28:45.797Z,1012.64
2023-05-07T07:29:45.748Z,1012.66
2023-05-07T07:30:45.830Z,1012.70
2023-05-07T07:31:45.813Z,1012.72
2023-05-07T07:32:45.869Z,1012.67
2023-05-07T07:33:45.857Z,1012.72
2023-05-07T07:34:46.190Z,1012.69
2023-05-07T07:35:45.920Z,1012.67
2023-05-07T07:36:46.986Z,1012.66
2023-05-07T07:37:45.984Z,1012.66
2023-05-07T07:38:46.017Z,1012.62
2023-05-07T07:39:46.035Z,1012.59
2023-05-07T07:40:46.084Z,1012.61
2023-05-07T07:41:46.389Z,1012.62
2023-05-07T07:42:46.123Z,1012.68
2023-05-07T07:43:46.155Z,1012.64
2023-05-07T07:44:46.183Z,1012.69
2023-05-07T07:45:46.212Z,1012.70
2023-05-07T07:46:46.300Z,1012.71
2023-05-07T07:48:46.309Z,1012.76
2023-05-07T07:49:46.588Z,1012.75
2023-05-07T07:50:46.728Z,1012.73
2023-05-07T07:51:46.390Z,1012.73
2023-05-07T07:52:46.418Z,1012.74
2023-05-07T07:53:46.449Z,1012.74
2023-05-07T07:54:46.482Z,1012.73
2023-05-07T07:55:46.522Z,1012.72
2023-05-07T07:56:46.946Z,1012.73
2023-05-07T07:57:46.569Z,1012.72
2023-05-07T07:58:46.619Z,1012.78
2023-05-07T07:59:46.634Z,1012.76
2023-05-07T08:00:46.661Z,1012.76
2023-05-07T08:01:46.771Z,1012.76
2023-05-07T08:02:46.791Z,1012.79
2023-05-07T08:04:46.803Z,1012.84
2023-05-07T08:05:46.804Z,1012.80
2023-05-07T08:06:46.837Z,1012.82
2023-05-07T08:07:46.865Z,1012.81
2023-05-07T08:08:46.900Z,1012.77
2023-05-07T08:09:46.925Z,1012.74
2023-05-07T08:10:47.285Z,1012.78
2023-05-07T08:11:46.988Z,1012.74
2023-05-07T08:12:47.059Z,1012.75
2023-05-07T08:13:47.063Z,1012.78
2023-05-07T08:14:47.082Z,1012.76
2023-05-07T08:15:47.106Z,1012.79
2023-05-07T08:16:47.199Z,1012.79
2023-05-07T08:17:47.455Z,1012.75
2023-05-07T08:18:47.266Z,1012.74
2023-05-07T08:19:47.298Z,1012.78
2023-05-07T08:20:47.294Z,1012.75
2023-05-07T08:21:47.308Z,1012.74
2023-05-07T08:22:47.385Z,1012.72
2023-05-07T08:23:47.346Z,1012.75
2023-05-07T08:24:47.692Z,1012.75
2023-05-07T08:25:47.412Z,1012.76
2023-05-07T08:26:47.842Z,1012.77
2023-05-07T08:27:47.472Z,1012.75
2023-05-07T08:28:47.536Z,1012.75
2023-05-07T08:29:47.533Z,1012.74
2023-05-07T08:30:47.587Z,1012.78
2023-05-07T08:31:47.893Z,1012.78
2023-05-07T08:32:47.664Z,1012.79
2023-05-07T08:33:47.651Z,1012.81
2023-05-07T08:34:47.696Z,1012.81
2023-05-07T08:35:47.717Z,1012.85
2023-05-07T08:36:47.747Z,1012.86
2023-05-07T08:37:48.069Z,1012.83
2023-05-07T08:38:47.797Z,1012.91
2023-05-07T08:39:47.832Z,1012.91
2023-05-07T08:40:47.905Z,1012.88
2023-05-07T08:41:47.926Z,1012.89
2023-05-07T08:42:47.927Z,1012.87
2023-05-07T08:43:48.255Z,1012.90
2023-05-07T08:44:48.005Z,1012.92
2023-05-07T08:45:48.118Z,1012.90
2023-05-07T08:46:48.158Z,1012.90
2023-05-07T08:47:48.120Z,1012.88
2023-05-07T08:48:48.101Z,1012.86
2023-05-07T08:49:48.382Z,1012.87
2023-05-07T08:50:48.160Z,1012.87
2023-05-07T08:51:48.193Z,1012.86
2023-05-07T08:52:48.228Z,1012.87
2023-05-07T08:53:48.253Z,1012.83
2023-05-07T08:54:48.283Z,1012.81
2023-05-07T08:55:48.321Z,1012.82
2023-05-07T08:56:48.647Z,1012.79
2023-05-07T08:57:48.381Z,1012.80
2023-05-07T08:58:48.403Z,1012.81
2023-05-07T08:59:48.430Z,1012.79
2023-05-07T09:00:48.621Z,1012.81
2023-05-07T09:01:48.569Z,1012.78
2023-05-07T09:02:48.582Z,1012.80
2023-05-07T09:03:48.884Z,1012.82
2023-05-07T09:04:48.593Z,1012.77
2023-05-07T09:05:48.617Z,1012.77
2023-05-07T09:06:48.650Z,1012.79
2023-05-07T09:07:48.675Z,1012.80
2023-05-07T09:08:48.706Z,1012.79
2023-05-07T09:09:48.761Z,1012.79
2023-05-07T09:10:49.014Z,1012.77
2023-05-07T09:11:48.796Z,1012.75
2023-05-07T09:12:48.897Z,1012.73
2023-05-07T09:13:48.860Z,1012.72
2023-05-07T09:14:48.895Z,1012.73
2023-05-07T09:15:48.957Z,1012.71
2023-05-07T09:16:49.082Z,1012.75
2023-05-07T09:17:49.355Z,1012.71
2023-05-07T09:18:49.009Z,1012.72
2023-05-07T09:19:49.071Z,1012.73
2023-05-07T09:20:49.110Z,1012.75
2023-05-07T09:21:49.101Z,1012.76
2023-05-07T09:22:49.147Z,1012.79
2023-05-07T09:25:49.230Z,1012.76
2023-05-07T09:26:49.299Z,1012.74
2023-05-07T09:27:49.298Z,1012.79
2023-05-07T09:28:49.326Z,1012.77
2023-05-07T09:29:49.349Z,1012.77
2023-05-07T09:30:49.382Z,1012.72
2023-05-07T09:31:49.746Z,1012.69
2023-05-07T09:32:49.625Z,1012.69
2023-05-07T09:33:49.470Z,1012.71
2023-05-07T09:34:49.531Z,1012.73
2023-05-07T09:35:49.534Z,1012.73
2023-05-07T09:36:49.578Z,1012.68
2023-05-07T09:37:49.608Z,1012.68
2023-05-07T09:38:52.255Z,1012.71
2023-05-07T09:39:49.676Z,1012.69
2023-05-07T09:40:49.708Z,1012.73
2023-05-07T09:41:49.721Z,1012.70
2023-05-07T09:42:49.771Z,1012.71
2023-05-07T09:43:49.784Z,1012.68
2023-05-07T09:44:49.819Z,1012.60
2023-05-07T09:45:50.158Z,1012.66
2023-05-07T09:46:49.876Z,1012.65
2023-05-07T09:47:49.932Z,1012.66
2023-05-07T09:48:49.961Z,1012.63
2023-05-07T09:50:49.999Z,1012.63
2023-05-07T09:51:50.051Z,1012.62
2023-05-07T09:52:50.361Z,1012.67
2023-05-07T09:53:50.095Z,1012.65
2023-05-07T09:54:50.121Z,1012.65
2023-05-07T09:55:50.216Z,1012.65
2023-05-07T09:56:50.185Z,1012.64
2023-05-07T09:57:50.225Z,1012.63
2023-05-07T09:59:50.292Z,1012.61
2023-05-07T10:00:50.654Z,1012.59
2023-05-07T10:01:50.330Z,1012.59
2023-05-07T10:02:50.492Z,1012.57
2023-05-07T10:03:50.560Z,1012.62
2023-05-07T10:04:50.587Z,1012.57
2023-05-07T10:05:50.473Z,1012.60
2023-05-07T10:06:50.490Z,1012.58
2023-05-07T10:07:50.826Z,1012.57
2023-05-07T10:08:50.555Z,1012.58
2023-05-07T10:09:50.580Z,1012.60
2023-05-07T10:10:50.623Z,1012.59
2023-05-07T10:11:50.644Z,1012.61
2023-05-07T10:12:50.707Z,1012.58
2023-05-07T10:13:50.705Z,1012.55
2023-05-07T10:14:51.043Z,1012.58
2023-05-07T10:15:50.761Z,1012.56
2023-05-07T10:16:50.799Z,1012.54
2023-05-07T10:17:50.932Z,1012.58
2023-05-07T10:18:50.880Z,1012.59
2023-05-07T10:19:50.995Z,1012.57
2023-05-07T10:20:50.972Z,1012.59
2023-05-07T10:21:51.248Z,1012.51
2023-05-07T10:22:50.981Z,1012.53
2023-05-07T10:23:51.029Z,1012.58
2023-05-07T10:24:51.048Z,1012.55
2023-05-07T10:25:51.648Z,1012.53
2023-05-07T10:26:51.136Z,1012.56
2023-05-07T10:27:51.142Z,1012.56
2023-05-07T10:30:51.545Z,1012.59
2023-05-07T10:31:51.263Z,1012.61
2023-05-07T10:32:51.367Z,1012.63
2023-05-07T10:33:51.330Z,1012.60
2023-05-07T10:34:51.358Z,1012.65
2023-05-07T10:35:51.386Z,1012.62
2023-05-07T10:36:51.562Z,1012.64
2023-05-07T10:37:51.751Z,1012.62
2023-05-07T10:38:51.484Z,1012.63
2023-05-07T10:39:51.511Z,1012.62
2023-05-07T10:40:51.548Z,1012.60
2023-05-07T10:41:51.570Z,1012.61
2023-05-07T10:42:51.613Z,1012.63
2023-05-07T10:43:51.640Z,1012.62
2023-05-07T10:44:51.918Z,1012.63
2023-05-07T10:45:51.728Z,1012.61
2023-05-07T10:46:51.734Z,1012.60
2023-05-07T10:47:51.774Z,1012.56
2023-05-07T10:48:51.799Z,1012.53
2023-05-07T10:49:51.829Z,1012.59
2023-05-07T10:50:51.905Z,1012.55
2023-05-07T10:51:52.191Z,1012.55
2023-05-07T10:52:51.941Z,1012.54
2023-05-07T10:54:51.978Z,1012.55
2023-05-07T10:55:52.020Z,1012.54
2023-05-07T10:56:52.077Z,1012.52
2023-05-07T10:57:52.094Z,1012.52
2023-05-07T10:58:52.406Z,1012.52
2023-05-07T10:59:52.157Z,1012.52
2023-05-07T11:00:52.166Z,1012.51
2023-05-07T11:01:52.238Z,1012.54
2023-05-07T11:02:52.310Z,1012.53
2023-05-07T11:03:52.256Z,1012.53
2023-05-07T11:04:52.327Z,1012.52
2023-05-07T11:05:52.622Z,1012.56
2023-05-07T11:06:52.355Z,1012.54
2023-05-07T11:07:52.380Z,1012.57
2023-05-07T11:08:52.434Z,1012.56
2023-05-07T11:09:52.493Z,1012.60
2023-05-07T11:10:52.512Z,1012.62
2023-05-07T11:11:52.572Z,1012.64
2023-05-07T11:12:52.901Z,1012.63
2023-05-07T11:13:52.576Z,1012.63
2023-05-07T11:14:52.598Z,1012.66
2023-05-07T11:15:52.718Z,1012.69
2023-05-07T11:16:52.658Z,1012.69
2023-05-07T11:18:52.721Z,1012.67
2023-05-07T11:19:53.063Z,1012.69
2023-05-07T11:20:52.804Z,1012.67
2023-05-07T11:21:52.823Z,1012.70
2023-05-07T11:22:54.132Z,1012.68
2023-05-07T11:23:52.887Z,1012.70
2023-05-07T11:24:53.007Z,1012.72
2023-05-07T11:25:52.949Z,1012.73
2023-05-07T11:26:53.271Z,1012.72
2023-05-07T11:27:53.012Z,1012.68
2023-05-07T11:28:53.055Z,1012.72
2023-05-07T11:29:53.062Z,1012.72
2023-05-07T11:30:53.092Z,1012.71
2023-05-07T11:31:53.261Z,1012.68
2023-05-07T11:32:53.190Z,1012.67
2023-05-07T11:33:53.611Z,1012.65
2023-05-07T11:34:53.226Z,1012.69
2023-05-07T11:35:53.258Z,1012.70
2023-05-07T11:36:53.293Z,1012.71
2023-05-07T11:37:53.332Z,1012.72
2023-05-07T11:39:53.383Z,1012.72
2023-05-07T11:40:53.763Z,1012.74
2023-05-07T11:41:53.841Z,1012.71
2023-05-07T11:42:53.472Z,1012.69
2023-05-07T11:43:53.508Z,1012.70
2023-05-07T11:44:53.540Z,1012.69
2023-05-07T11:45:53.595Z,1012.70
2023-05-07T11:46:53.912Z,1012.69
2023-05-07T11:47:53.759Z,1012.70
2023-05-07T11:48:53.680Z,1012.62
2023-05-07T11:49:53.718Z,1012.57
2023-05-07T11:50:53.747Z,1012.56
2023-05-07T11:51:53.816Z,1012.55
2023-05-07T11:52:54.119Z,1012.54
2023-05-07T11:53:53.825Z,1012.52
2023-05-07T11:54:53.859Z,1012.53
2023-05-07T11:55:53.888Z,1012.60
2023-05-07T11:56:53.955Z,1012.67
2023-05-07T11:57:53.956Z,1012.70
2023-05-07T11:59:54.034Z,1012.71
2023-05-07T12:00:54.333Z,1012.70
2023-05-07T12:01:54.102Z,1012.66
2023-05-07T12:02:54.189Z,1012.64
2023-05-07T12:03:54.186Z,1012.58
2023-05-07T12:04:54.386Z,1012.60
2023-05-07T12:05:54.512Z,1012.56
2023-05-07T12:06:54.239Z,1012.59
2023-05-07T12:07:54.281Z,1012.55
2023-05-07T12:08:54.300Z,1012.59
2023-05-07T12:09:54.363Z,1012.56
2023-05-07T12:10:54.362Z,1012.58
2023-05-07T12:11:54.399Z,1012.56
2023-05-07T12:12:54.498Z,1012.56
2023-05-07T12:13:54.473Z,1012.53
2023-05-07T12:15:54.556Z,1012.57
2023-05-07T12:16:54.606Z,1012.60
2023-05-07T12:17:54.623Z,1012.59
2023-05-07T12:18:54.872Z,1012.59
2023-05-07T12:19:54.649Z,1012.57
2023-05-07T12:21:54.723Z,1012.61
2023-05-07T12:22:54.856Z,1012.63
2023-05-07T12:23:54.783Z,1012.64
2023-05-07T12:24:54.849Z,1012.64
2023-05-07T12:25:55.153Z,1012.65
2023-05-07T12:26:54.886Z,1012.67
2023-05-07T12:27:54.906Z,1012.71
2023-05-07T12:28:54.965Z,1012.73
2023-05-07T12:29:54.971Z,1012.72
2023-05-07T12:30:55.101Z,1012.74
2023-05-07T12:31:55.268Z,1012.72
2023-05-07T12:32:55.417Z,1012.74
2023-05-07T12:33:55.107Z,1012.73
2023-05-07T12:34:55.130Z,1012.75
2023-05-07T12:35:55.164Z,1012.71
2023-05-07T12:36:55.195Z,1012.74
2023-05-07T12:37:55.225Z,1012.74
2023-05-07T12:38:55.261Z,1012.78
2023-05-07T12:39:55.543Z,1012.80
2023-05-07T12:40:55.329Z,1012.81
2023-05-07T12:41:55.357Z,1012.80
2023-05-07T12:42:55.406Z,1012.78
2023-05-07T12:43:55.426Z,1012.78
2023-05-07T12:44:55.467Z,1012.80
2023-05-07T12:45:55.516Z,1012.75
2023-05-07T12:46:56.031Z,1012.76
2023-05-07T12:47:55.596Z,1012.77
2023-05-07T12:48:55.586Z,1012.78
2023-05-07T12:49:55.610Z,1012.76
2023-05-07T12:50:55.651Z,1012.81
2023-05-07T12:51:55.686Z,1012.82
2023-05-07T12:52:55.703Z,1012.85
2023-05-07T12:53:56.035Z,1012.83
2023-05-07T12:54:55.770Z,1012.85
2023-05-07T12:55:55.824Z,1012.90
2023-05-07T12:56:55.835Z,1012.92
2023-05-07T12:57:55.874Z,1012.93
2023-05-07T12:58:55.893Z,1012.93
2023-05-07T12:59:55.931Z,1012.92
2023-05-07T13:00:56.002Z,1012.89
2023-05-07T13:01:56.042Z,1012.88
2023-05-07T13:02:56.092Z,1012.86
2023-05-07T13:03:56.132Z,1012.84
2023-05-07T13:04:56.088Z,1012.80
2023-05-07T13:05:58.619Z,1012.79
2023-05-07T13:07:56.185Z,1012.79
2023-05-07T13:08:56.316Z,1012.81
2023-05-07T13:10:56.275Z,1012.82
2023-05-07T13:11:56.375Z,1012.83
2023-05-07T13:12:56.619Z,1012.82
2023-05-07T13:13:56.378Z,1012.86
2023-05-07T13:14:56.404Z,1012.84
2023-05-07T13:15:56.491Z,1012.85
2023-05-07T13:16:56.489Z,1012.91
2023-05-07T13:18:56.941Z,1012.94
2023-05-07T13:19:56.567Z,1012.91
2023-05-07T13:20:56.631Z,1012.90